Flight Track Log - Related Links

Times and Time Zones

All times are in EDT time to prevent confusion due to time zone crossing. See the CES5799 flight status page for this flight to view local times or setup timezone preferences in your user account.

Time Position Orientation Groundspeed Altitude Reporting Facility
EDT Latitude Longitude Course Direction KTS MPH feet Rate Location/Type
Tue 10:03:00 PM 26.3704 104.0432 38° Northeast  Level Estimated
Tue 10:04:00 PM 26.4494 104.1136 39° Northeast  Level Estimated
Tue 10:05:00 PM 26.5284 104.1842 39° Northeast  Level Estimated
Tue 10:06:00 PM 26.6073 104.2548 39° Northeast  Level Estimated
Tue 10:07:00 PM 26.6862 104.3255 39° Northeast  Level Estimated
Tue 10:08:00 PM 26.7650 104.3963 39° Northeast  Level Estimated
Tue 10:09:00 PM 26.8438 104.4672 39° Northeast  Level Estimated
Tue 10:10:00 PM 26.9226 104.5382 39° Northeast  Level Estimated
Tue 10:11:00 PM 27.0014 104.6093 39° Northeast  Level Estimated
Tue 10:12:00 PM 27.0801 104.6805 39° Northeast  Level Estimated
Tue 10:13:00 PM 27.1588 104.7519 39° Northeast  Level Estimated
Tue 10:14:00 PM 27.2374 104.8233 39° Northeast  Level Estimated
Tue 10:15:00 PM 27.3160 104.8948 39° Northeast  Level Estimated
Tue 10:16:00 PM 27.3946 104.9664 39° Northeast  Level Estimated
Tue 10:17:00 PM 27.4731 105.0381 39° Northeast  Level Estimated
Tue 10:18:00 PM 27.5516 105.1099 39° Northeast  Level Estimated
Tue 10:19:00 PM 27.6301 105.1819 39° Northeast  Level Estimated
Tue 10:20:00 PM 27.7085 105.2539 39° Northeast  Level Estimated
Tue 10:21:00 PM 27.7869 105.3260 39° Northeast  Level Estimated
Tue 10:22:00 PM 27.8652 105.3982 39° Northeast  Level Estimated
Tue 10:23:00 PM 27.9435 105.4706 39° Northeast  Level Estimated
Tue 10:24:00 PM 28.0218 105.5430 39° Northeast  Level Estimated
Tue 10:25:00 PM 28.1000 105.6156 39° Northeast  Level Estimated
Tue 10:26:00 PM 28.1782 105.6882 39° Northeast  Level Estimated
Tue 10:27:00 PM 28.2564 105.7610 39° Northeast  Level Estimated
Tue 10:28:00 PM 28.3345 105.8339 39° Northeast  Level Estimated
Tue 10:29:00 PM 28.4126 105.9068 39° Northeast  Level Estimated
Tue 10:30:00 PM 28.4906 105.9799 39° Northeast  Level Estimated
Tue 10:31:00 PM 28.5686 106.0531 39° Northeast  Level Estimated
Tue 10:32:00 PM 28.6466 106.1264 40° Northeast  Level Estimated
Tue 10:33:00 PM 28.7245 106.1998 40° Northeast  Level Estimated
Tue 10:34:00 PM 28.8024 106.2733 40° Northeast  Level Estimated
Tue 10:35:00 PM 28.8802 106.3470 40° Northeast  Level Estimated
Tue 10:36:00 PM 28.9580 106.4207 40° Northeast  Level Estimated
Tue 10:37:00 PM 29.0358 106.4946 40° Northeast  Level Estimated
Tue 10:38:00 PM 29.1135 106.5685 40° Northeast  Level Estimated
Tue 10:39:00 PM 29.1912 106.6426 40° Northeast  Level Estimated
Tue 10:40:00 PM 29.2688 106.7168 40° Northeast  Level Estimated
Tue 10:41:00 PM 29.3464 106.7911 40° Northeast  Level Estimated
Tue 10:42:00 PM 29.4240 106.8655 40° Northeast  Level Estimated
Tue 10:43:00 PM 29.5015 106.9400 40° Northeast  Level Estimated
Tue 10:44:00 PM 29.5790 107.0146 40° Northeast  Level Estimated
Tue 10:45:00 PM 29.6564 107.0894 40° Northeast  Level Estimated
Tue 10:46:00 PM 29.7338 107.1643 40° Northeast  Level Estimated
Tue 10:47:00 PM 29.8111 107.2392 40° Northeast  Level Estimated
Tue 10:48:00 PM 29.8884 107.3143 40° Northeast  Level Estimated
Tue 10:49:00 PM 29.9657 107.3895 40° Northeast  Level Estimated
Tue 10:50:00 PM 30.0429 107.4649 40° Northeast  Level Estimated
Tue 10:51:00 PM 30.1201 107.5403 40° Northeast  Level Estimated
Tue 10:52:00 PM 30.1972 107.6159 40° Northeast  Level Estimated
Tue 10:53:00 PM 30.2743 107.6916 40° Northeast  Level Estimated
Tue 10:54:00 PM 30.3514 107.7674 40° Northeast  Level Estimated
Tue 10:55:00 PM 30.4284 107.8433 40° Northeast  Level Estimated
Tue 10:56:00 PM 30.5053 107.9193 40° Northeast  Level Estimated
Tue 10:57:00 PM 30.5823 107.9955 40° Northeast  Level Estimated
Tue 10:58:00 PM 30.6591 108.0718 40° Northeast  Level Estimated
Tue 10:59:00 PM 30.7360 108.1482 41° Northeast  Level Estimated
Tue 11:00:00 PM 30.8127 108.2247 41° Northeast  Level Estimated
Tue 11:01:00 PM 30.8895 108.3014 41° Northeast  Level Estimated
Tue 11:02:00 PM 30.9662 108.3782 41° Northeast  Level Estimated
Tue 11:03:00 PM 31.0428 108.4550 41° Northeast  Level Estimated
Tue 11:04:00 PM 31.1194 108.5321 41° Northeast  Level Estimated
Tue 11:05:00 PM 31.1960 108.6092 41° Northeast  Level Estimated
Tue 11:06:00 PM 31.2725 108.6865 41° Northeast  Level Estimated
Tue 11:07:00 PM 31.3489 108.7639 41° Northeast  Level Estimated
Tue 11:08:00 PM 31.4253 108.8414 41° Northeast  Level Estimated
Tue 11:09:00 PM 31.5017 108.9191 41° Northeast  Level Estimated
Tue 11:10:00 PM 31.5780 108.9968 41° Northeast  Level Estimated
Tue 11:11:00 PM 31.6543 109.0747 41° Northeast  Level Estimated
Tue 11:12:00 PM 31.7305 109.1528 41° Northeast  Level Estimated
Tue 11:13:00 PM 31.8067 109.2309 41° Northeast  Level Estimated
Tue 11:14:00 PM 31.8828 109.3092 41° Northeast  Level Estimated
Tue 11:15:00 PM 31.9589 109.3876 41° Northeast  Level Estimated
Tue 11:16:00 PM 32.0350 109.4662 41° Northeast  Level Estimated
Tue 11:17:00 PM 32.1110 109.5449 41° Northeast  Level Estimated
Tue 11:18:00 PM 32.1869 109.6237 41° Northeast  Level Estimated
Tue 11:19:00 PM 32.2628 109.7026 41° Northeast  Level Estimated
Tue 11:20:00 PM 32.3386 109.7817 41° Northeast  Level Estimated
Tue 11:21:00 PM 32.4144 109.8609 41° Northeast  Level Estimated
Tue 11:22:00 PM 32.4902 109.9402 41° Northeast  Level Estimated
Tue 11:23:00 PM 32.5658 110.0197 41° Northeast  Level Estimated
Tue 11:24:00 PM 32.6415 110.0993 42° Northeast  Level Estimated
Tue 11:25:00 PM 32.7171 110.1791 42° Northeast  Level Estimated
Tue 11:26:00 PM 32.7926 110.2589 42° Northeast  Level Estimated
Tue 11:27:00 PM 32.8681 110.3390 42° Northeast  Level Estimated
Tue 11:28:00 PM 32.9435 110.4191 42° Northeast  Level Estimated
Tue 11:29:00 PM 33.0189 110.4994 42° Northeast  Level Estimated
Tue 11:30:00 PM 33.0943 110.5798 42° Northeast  Level Estimated
Tue 11:31:00 PM 33.1696 110.6604 42° Northeast  Level Estimated
Tue 11:32:00 PM 33.2448 110.7411 42° Northeast  Level Estimated
Tue 11:33:00 PM 33.3200 110.8219 42° Northeast  Level Estimated
Tue 11:34:00 PM 33.3951 110.9029 42° Northeast  Level Estimated
Tue 11:35:00 PM 33.4702 110.9840 42° Northeast  Level Estimated
Tue 11:36:00 PM 33.5452 111.0653 42° Northeast  Level Estimated
Tue 11:37:00 PM 33.6202 111.1467 42° Northeast  Level Estimated
Tue 11:38:00 PM 33.6951 111.2282 42° Northeast  Level Estimated
Tue 11:39:00 PM 33.7699 111.3099 42° Northeast  Level Estimated
Tue 11:40:00 PM 33.8447 111.3917 42° Northeast  Level Estimated
Tue 11:41:00 PM 33.9195 111.4737 42° Northeast  Level Estimated
Tue 11:42:00 PM 33.9942 111.5558 42° Northeast  Level Estimated
Tue 11:43:00 PM 34.0688 111.6381 42° Northeast  Level Estimated
Tue 11:44:00 PM 34.1434 111.7205 42° Northeast  Level Estimated
Tue 11:45:00 PM 34.2244 111.8102 42° Northeast  Level Estimated
Tue 11:46:00 PM 34.3054 111.9001 43° Northeast  Level Estimated
Tue 11:47:00 PM 34.3863 111.9902 43° Northeast  Level Estimated
Tue 11:48:00 PM 34.4671 112.0804 43° Northeast  Level Estimated
Tue 11:49:00 PM 34.5478 112.1709 43° Northeast  Level Estimated
Tue 11:50:00 PM 34.6285 112.2615 43° Northeast  Level Estimated
Tue 11:51:00 PM 34.7091 112.3522 43° Northeast  Level Estimated
Tue 11:52:00 PM 34.7411 112.3883 43° Northeast  Level Estimated
Tue 11:53:00 PM 34.7411 112.3883 68° East  Level Estimated
Tue 11:54:00 PM 34.7411 112.3883 68° East  Level Estimated
Tue 11:55:00 PM 34.7411 112.3883 68° East  Level Estimated
Tue 11:56:00 PM 34.7411 112.3883 68° East  Level Estimated
Tue 11:57:00 PM 34.7411 112.3883 68° East  Level Estimated
Tue 11:58:00 PM 34.7411 112.3883 68° East  Level Estimated

Login

Don't have an account? Register now (free) for customized features, flight alerts, and more!